Time;durP1;ratioP1;P1;durP2;ratioP2;P2;SDS_P1;SDS_P2;PMS_P1;PMS_P2;Temp;Humidity;BMP_temperature;BMP_pressure;BME280_temperature;BME280_humidity;BME280_pressure;Samples;Min_cycle;Max_cycle;Signal;HPM_P1;HPM_P2
2022/10/19 00:01:41;;;;;;;21.23;7.03;;;8.00;99.90;;;;;;5008229;28;20052;-63
2022/10/19 00:04:06;;;;;;;18.48;8.00;;;8.00;99.90;;;;;;5006028;28;20037;-63
2022/10/19 00:06:34;;;;;;;18.02;7.78;;;8.00;99.90;;;;;;4988660;28;20036;-63
2022/10/19 00:09:07;;;;;;;37.72;7.35;;;8.00;99.90;;;;;;5008741;28;20386;-63
2022/10/19 00:11:35;;;;;;;46.70;6.60;;;8.10;99.90;;;;;;5006565;28;20034;-63
2022/10/19 00:14:01;;;;;;;45.97;7.82;;;8.10;99.90;;;;;;5007819;28;20508;-63
2022/10/19 00:16:29;;;;;;;25.70;7.10;;;8.00;99.90;;;;;;5008290;28;20075;-63
2022/10/19 00:18:56;;;;;;;22.10;7.05;;;8.00;99.90;;;;;;5007548;28;20057;-62
2022/10/19 00:21:22;;;;;;;24.58;6.05;;;8.00;99.90;;;;;;5006055;28;20085;-63
2022/10/19 00:23:48;;;;;;;18.08;5.93;;;7.90;99.90;;;;;;5009852;28;20069;-63
2022/10/19 00:26:14;;;;;;;16.02;6.18;;;7.90;99.90;;;;;;5010122;28;20026;-63
2022/10/19 00:28:40;;;;;;;14.85;5.70;;;7.90;99.90;;;;;;4996611;28;20048;-63
2022/10/19 00:31:09;;;;;;;34.10;7.00;;;7.80;99.90;;;;;;5009348;28;20026;-63
2022/10/19 00:33:34;;;;;;;43.80;7.57;;;7.80;99.90;;;;;;5026514;28;20603;-63
2022/10/19 00:36:00;;;;;;;30.85;6.78;;;7.70;99.90;;;;;;5012101;28;20104;-63
2022/10/19 00:38:26;;;;;;;9.77;6.22;;;7.70;99.90;;;;;;5011082;28;20029;-63
2022/10/19 00:40:52;;;;;;;16.70;5.93;;;7.70;99.90;;;;;;5007861;28;20022;-62
2022/10/19 00:43:28;;;;;;;22.65;5.85;;;7.70;99.90;;;;;;5008466;28;20023;-63
2022/10/19 00:45:54;;;;;;;31.23;6.65;;;7.70;99.90;;;;;;5005685;28;20018;-62
2022/10/19 00:48:30;;;;;;;36.08;6.50;;;7.70;99.90;;;;;;5009390;28;20508;-62
2022/10/19 00:50:58;;;;;;;23.55;8.20;;;7.70;99.90;;;;;;5007550;28;20034;-63
2022/10/19 00:53:26;;;;;;;42.83;6.70;;;7.70;99.90;;;;;;5010628;28;20025;-63
2022/10/19 00:55:52;;;;;;;20.55;6.95;;;7.70;99.90;;;;;;5001774;28;20083;-62
2022/10/19 00:58:17;;;;;;;23.27;6.10;;;7.70;99.90;;;;;;5006478;28;20026;-63
2022/10/19 01:00:43;;;;;;;31.65;7.90;;;7.70;99.90;;;;;;5008988;28;20688;-63
2022/10/19 01:03:11;;;;;;;22.70;6.95;;;7.70;99.90;;;;;;5008898;28;20030;-63
2022/10/19 01:05:37;;;;;;;38.45;6.85;;;7.70;99.90;;;;;;5010343;28;20033;-62
2022/10/19 01:08:04;;;;;;;12.98;6.28;;;7.60;99.90;;;;;;5008260;28;20029;-63
2022/10/19 01:10:56;;;;;;;22.88;6.47;;;7.60;99.90;;;;;;5010080;28;20030;-63
2022/10/19 01:13:54;;;;;;;16.65;6.80;;;7.60;99.90;;;;;;5011470;28;20026;-63
2022/10/19 01:16:32;;;;;;;27.40;6.82;;;7.50;99.90;;;;;;5008762;28;20018;-63
2022/10/19 01:18:58;;;;;;;28.60;6.15;;;7.50;99.90;;;;;;5008246;28;20017;-63
2022/10/19 01:21:33;;;;;;;48.50;6.90;;;7.50;99.90;;;;;;5008394;28;20153;-63
2022/10/19 01:24:26;;;;;;;38.05;5.93;;;7.40;99.90;;;;;;5010549;28;20022;-63
2022/10/19 01:26:51;;;;;;;84.10;6.53;;;7.40;99.90;;;;;;4993660;28;20057;-63
2022/10/19 01:29:50;;;;;;;35.45;6.20;;;7.40;99.90;;;;;;5009901;28;20389;-62
2022/10/19 01:32:21;;;;;;;28.23;5.82;;;7.30;99.90;;;;;;5000759;28;20113;-63
2022/10/19 01:35:04;;;;;;;44.97;6.22;;;7.30;99.90;;;;;;5008498;28;20058;-63
2022/10/19 01:38:01;;;;;;;8.52;5.25;;;7.30;99.90;;;;;;5009852;28;20092;-63
2022/10/19 01:40:55;;;;;;;14.13;6.85;;;7.20;99.90;;;;;;4988104;28;20046;-63
2022/10/19 01:43:49;;;;;;;17.27;5.57;;;7.20;99.90;;;;;;5010204;28;20112;-63
2022/10/19 01:46:31;;;;;;;29.27;5.68;;;7.20;99.90;;;;;;5018640;28;20577;-63
2022/10/19 01:49:06;;;;;;;22.98;5.97;;;7.20;99.90;;;;;;5004123;28;20033;-63
2022/10/19 01:51:37;;;;;;;41.72;7.88;;;7.20;99.90;;;;;;5005727;28;20037;-62
2022/10/19 01:54:07;;;;;;;24.75;6.95;;;7.10;99.90;;;;;;5006211;28;20032;-62
2022/10/19 01:56:34;;;;;;;17.98;7.15;;;7.10;99.90;;;;;;5009920;28;20040;-63
2022/10/19 01:59:04;;;;;;;28.15;7.80;;;7.10;99.90;;;;;;5008933;28;20115;-63
2022/10/19 02:01:33;;;;;;;13.90;7.47;;;7.10;99.90;;;;;;5008286;28;20061;-63
2022/10/19 02:03:59;;;;;;;34.70;6.50;;;7.10;99.90;;;;;;5010216;28;20026;-63
2022/10/19 02:06:25;;;;;;;31.65;5.63;;;7.20;99.90;;;;;;5007882;28;20053;-63
2022/10/19 02:08:52;;;;;;;45.90;6.20;;;7.10;99.90;;;;;;5010642;28;20034;-63
2022/10/19 02:11:21;;;;;;;50.00;6.43;;;7.10;99.90;;;;;;5008462;28;20131;-62
2022/10/19 02:13:53;;;;;;;28.25;6.60;;;7.10;99.90;;;;;;5007181;28;20045;-62
2022/10/19 02:16:25;;;;;;;15.85;4.72;;;7.00;99.90;;;;;;5004880;28;20030;-63
2022/10/19 02:18:53;;;;;;;40.42;8.20;;;7.00;99.90;;;;;;5009990;28;20029;-63
2022/10/19 02:21:19;;;;;;;30.63;6.00;;;7.00;99.90;;;;;;5007515;28;20077;-63
2022/10/19 02:23:45;;;;;;;12.85;6.38;;;7.00;99.90;;;;;;5010284;28;20075;-63
2022/10/19 02:26:11;;;;;;;12.23;5.25;;;7.00;99.90;;;;;;5009202;28;20033;-64
2022/10/19 02:28:37;;;;;;;16.85;5.60;;;7.10;99.90;;;;;;4994687;28;20137;-63
2022/10/19 02:31:03;;;;;;;20.45;6.20;;;7.00;99.90;;;;;;5007832;28;20493;-63
2022/10/19 02:33:30;;;;;;;19.50;6.65;;;7.00;99.90;;;;;;5009751;28;20037;-63
2022/10/19 02:35:57;;;;;;;35.72;7.07;;;7.00;99.90;;;;;;5008506;28;20022;-64
2022/10/19 02:38:23;;;;;;;30.52;6.03;;;7.00;99.90;;;;;;5010031;28;20036;-63
2022/10/19 02:41:10;;;;;;;14.43;5.10;;;6.90;99.90;;;;;;5002519;28;20025;-63
2022/10/19 02:43:38;;;;;;;49.78;6.10;;;6.90;99.90;;;;;;5009371;28;20040;-63
2022/10/19 02:46:38;;;;;;;28.27;5.28;;;6.90;99.90;;;;;;5007850;28;20416;-63
2022/10/19 02:49:06;;;;;;;28.20;5.93;;;6.80;99.90;;;;;;5006246;28;20045;-64
2022/10/19 02:51:53;;;;;;;45.42;6.35;;;6.80;99.90;;;;;;5008260;28;20066;-63
2022/10/19 02:54:18;;;;;;;33.15;6.13;;;6.80;99.90;;;;;;5010181;28;20038;-63
2022/10/19 02:56:44;;;;;;;34.40;5.97;;;6.70;99.90;;;;;;5006808;28;20032;-62
2022/10/19 02:59:10;;;;;;;35.60;5.75;;;6.70;99.90;;;;;;5009513;28;20456;-64
2022/10/19 03:01:35;;;;;;;19.02;5.65;;;6.70;99.90;;;;;;5006516;28;20042;-63
2022/10/19 03:04:01;;;;;;;15.80;5.30;;;6.70;99.90;;;;;;5009067;28;20104;-63
2022/10/19 03:06:26;;;;;;;18.63;4.85;;;6.70;99.90;;;;;;5008656;28;20465;-63
2022/10/19 03:08:52;;;;;;;14.48;5.18;;;6.70;99.90;;;;;;5007999;28;20404;-63
2022/10/19 03:11:17;;;;;;;18.90;5.07;;;6.60;99.90;;;;;;5008050;28;20036;-63
2022/10/19 03:13:43;;;;;;;23.33;4.18;;;6.60;99.90;;;;;;5010272;28;20034;-63
2022/10/19 03:16:11;;;;;;;26.25;5.38;;;6.50;99.90;;;;;;5008368;28;20030;-63
2022/10/19 03:18:36;;;;;;;18.45;4.60;;;6.50;99.90;;;;;;5006331;28;20558;-63
2022/10/19 03:21:05;;;;;;;39.33;5.70;;;6.50;99.90;;;;;;5008185;28;20108;-63
2022/10/19 03:23:30;;;;;;;44.40;5.15;;;6.50;99.90;;;;;;5009153;28;20030;-63
2022/10/19 03:25:56;;;;;;;58.38;5.40;;;6.50;99.90;;;;;;5008539;28;20080;-63
2022/10/19 03:28:21;;;;;;;12.25;4.70;;;6.50;99.90;;;;;;4994550;28;20425;-64
2022/10/19 03:30:47;;;;;;;27.88;5.30;;;6.40;99.90;;;;;;5007369;28;20092;-63
2022/10/19 03:33:12;;;;;;;24.60;5.47;;;6.40;99.90;;;;;;5008436;28;20152;-63
2022/10/19 03:35:38;;;;;;;17.58;4.38;;;6.30;99.90;;;;;;5007785;28;20041;-64
2022/10/19 03:38:03;;;;;;;16.38;3.90;;;6.30;99.90;;;;;;5008527;28;20034;-63
2022/10/19 03:40:29;;;;;;;31.20;5.00;;;6.30;99.90;;;;;;5007533;28;20029;-63
2022/10/19 03:42:54;;;;;;;25.55;4.00;;;6.30;99.90;;;;;;5007123;28;20030;-64
2022/10/19 03:45:20;;;;;;;9.48;3.83;;;6.20;99.90;;;;;;5009147;28;20029;-63
2022/10/19 03:47:50;;;;;;;36.00;4.40;;;6.20;99.90;;;;;;5006545;28;20030;-64
2022/10/19 03:50:16;;;;;;;7.30;3.35;;;6.20;99.90;;;;;;5008477;28;20153;-63
2022/10/19 03:52:42;;;;;;;13.15;3.85;;;6.20;99.90;;;;;;5006258;28;20113;-63
2022/10/19 03:55:09;;;;;;;19.05;4.25;;;6.20;99.90;;;;;;5010083;28;20501;-64
2022/10/19 03:57:35;;;;;;;33.50;3.85;;;6.20;99.90;;;;;;5007959;28;20033;-63
2022/10/19 04:00:01;;;;;;;20.63;3.92;;;6.10;99.90;;;;;;5008273;28;20041;-64
2022/10/19 04:02:27;;;;;;;36.03;3.70;;;6.10;99.90;;;;;;5009670;28;20033;-63
2022/10/19 04:04:53;;;;;;;39.60;4.00;;;6.10;99.90;;;;;;5008233;28;20585;-63
2022/10/19 04:07:18;;;;;;;26.20;4.03;;;6.10;99.90;;;;;;5001852;28;20058;-63
2022/10/19 04:09:44;;;;;;;27.33;3.90;;;6.00;99.90;;;;;;5010880;28;20052;-64
2022/10/19 04:12:10;;;;;;;52.70;4.55;;;6.00;99.90;;;;;;5011311;28;20080;-64
2022/10/19 04:14:37;;;;;;;40.53;3.72;;;6.00;99.90;;;;;;5011946;28;20381;-64
2022/10/19 04:17:03;;;;;;;38.10;4.97;;;6.00;99.90;;;;;;5011254;28;20091;-63
2022/10/19 04:19:29;;;;;;;52.22;4.75;;;6.00;99.90;;;;;;5009832;28;20037;-63
2022/10/19 04:21:54;;;;;;;26.88;3.67;;;5.90;99.90;;;;;;5011640;28;20048;-64
2022/10/19 04:24:20;;;;;;;32.58;4.03;;;5.90;99.90;;;;;;5011045;28;20030;-63
2022/10/19 04:26:51;;;;;;;46.15;4.18;;;5.90;99.90;;;;;;5006689;28;20112;-63
2022/10/19 04:29:19;;;;;;;37.97;4.85;;;5.90;99.90;;;;;;5008139;23;20445;-69
2022/10/19 04:31:47;;;;;;;46.17;4.65;;;5.90;99.90;;;;;;5007869;28;20032;-68
2022/10/19 04:34:13;;;;;;;25.70;4.47;;;5.90;99.90;;;;;;5010570;28;20029;-68
2022/10/19 04:36:38;;;;;;;61.50;4.80;;;5.90;99.90;;;;;;5009640;28;20427;-68
2022/10/19 04:39:05;;;;;;;30.10;5.03;;;5.90;99.90;;;;;;5003949;28;20057;-68
2022/10/19 04:41:32;;;;;;;28.40;4.95;;;6.00;99.90;;;;;;4990045;28;20034;-69
2022/10/19 04:43:59;;;;;;;19.35;4.63;;;6.00;99.90;;;;;;4992237;28;20406;-68
2022/10/19 04:46:26;;;;;;;23.88;5.30;;;6.00;99.90;;;;;;4991926;28;20064;-68
2022/10/19 04:48:53;;;;;;;24.15;5.63;;;6.00;99.90;;;;;;4990881;28;20065;-71
2022/10/19 04:51:19;;;;;;;25.38;5.25;;;6.00;99.90;;;;;;4991260;28;20561;-68
2022/10/19 04:53:45;;;;;;;18.40;4.97;;;6.00;99.90;;;;;;4991640;28;20023;-67
2022/10/19 04:56:20;;;;;;;16.45;4.97;;;6.00;99.90;;;;;;5003020;28;20105;-67
2022/10/19 04:58:46;;;;;;;9.43;5.53;;;6.00;99.90;;;;;;4992339;28;20458;-68
2022/10/19 05:01:18;;;;;;;9.73;5.07;;;6.00;99.90;;;;;;4990111;28;20537;-68
2022/10/19 05:03:44;;;;;;;10.23;5.25;;;6.10;99.90;;;;;;4989444;28;20019;-68
2022/10/19 05:06:11;;;;;;;22.58;6.43;;;6.00;99.90;;;;;;5004015;28;20023;-68
2022/10/19 05:08:37;;;;;;;15.98;5.03;;;6.00;99.90;;;;;;4986967;28;20061;-68
2022/10/19 05:11:08;;;;;;;18.00;5.18;;;6.00;99.90;;;;;;4987763;28;20069;-69
2022/10/19 05:13:34;;;;;;;12.15;4.45;;;6.00;99.90;;;;;;4990722;28;20033;-69
2022/10/19 05:16:03;;;;;;;12.10;5.38;;;5.90;99.90;;;;;;4988609;28;20042;-69
2022/10/19 05:18:28;;;;;;;10.02;4.97;;;5.80;99.90;;;;;;4989160;28;20038;-69
2022/10/19 05:21:09;;;;;;;6.32;4.10;;;5.80;99.90;;;;;;4988714;28;20390;-68
2022/10/19 05:23:35;;;;;;;17.65;4.88;;;5.80;99.90;;;;;;5006804;28;20420;-69
2022/10/19 05:26:12;;;;;;;9.52;4.82;;;5.70;99.90;;;;;;4990967;28;20068;-68
2022/10/19 05:28:38;;;;;;;9.38;4.65;;;5.70;99.90;;;;;;4983824;28;20056;-68
2022/10/19 05:31:05;;;;;;;20.25;4.53;;;5.70;99.90;;;;;;5008962;28;20088;-68
2022/10/19 05:33:31;;;;;;;15.30;4.35;;;5.70;99.90;;;;;;5011753;28;20018;-69
2022/10/19 05:35:56;;;;;;;27.98;4.82;;;5.60;99.90;;;;;;5009114;28;20037;-69
2022/10/19 05:38:22;;;;;;;41.50;7.13;;;5.60;99.90;;;;;;5011590;28;20237;-69
2022/10/19 05:40:47;;;;;;;20.88;4.65;;;5.60;99.90;;;;;;4999983;28;20054;-69
2022/10/19 05:43:13;;;;;;;14.10;4.28;;;5.50;99.90;;;;;;5011042;28;20030;-69
2022/10/19 05:45:38;;;;;;;9.75;3.50;;;5.50;99.90;;;;;;5006936;28;20030;-69
2022/10/19 05:48:04;;;;;;;11.57;4.10;;;5.40;99.90;;;;;;5011254;28;20061;-70
2022/10/19 05:50:30;;;;;;;34.50;4.05;;;5.40;99.90;;;;;;5009213;28;20018;-69
2022/10/19 05:52:55;;;;;;;17.60;4.57;;;5.30;99.90;;;;;;5009525;28;20544;-70
2022/10/19 05:55:21;;;;;;;8.57;5.18;;;5.30;99.90;;;;;;5009932;28;20432;-69
2022/10/19 05:57:46;;;;;;;11.95;5.15;;;5.30;99.90;;;;;;5003797;28;20052;-68
2022/10/19 06:00:12;;;;;;;13.52;4.20;;;5.30;99.90;;;;;;5005953;28;20057;-69
2022/10/19 06:02:38;;;;;;;6.38;3.78;;;5.30;99.90;;;;;;5009048;28;20040;-69
2022/10/19 06:05:04;;;;;;;7.70;4.25;;;5.40;99.90;;;;;;5009394;28;20670;-69
2022/10/19 06:07:29;;;;;;;11.90;4.55;;;5.40;99.90;;;;;;5010408;28;20033;-69
2022/10/19 06:09:55;;;;;;;11.45;3.50;;;5.40;99.90;;;;;;5009246;28;20115;-69
2022/10/19 06:12:20;;;;;;;8.10;3.97;;;5.40;99.90;;;;;;4984048;28;20138;-69
2022/10/19 06:14:49;;;;;;;18.85;5.07;;;5.30;99.90;;;;;;5009449;28;20038;-69
2022/10/19 06:17:15;;;;;;;23.95;4.32;;;5.30;99.90;;;;;;5010122;28;20525;-70
2022/10/19 06:19:41;;;;;;;22.38;4.07;;;5.30;99.90;;;;;;5009845;28;20042;-69
2022/10/19 06:22:06;;;;;;;22.73;4.50;;;5.20;99.90;;;;;;5007634;28;20026;-67
2022/10/19 06:24:32;;;;;;;38.42;4.97;;;5.20;99.90;;;;;;5011054;28;20798;-70
2022/10/19 06:26:57;;;;;;;28.90;6.35;;;5.20;99.90;;;;;;5007610;28;20080;-70
2022/10/19 06:29:23;;;;;;;22.27;5.25;;;5.20;99.90;;;;;;4993182;28;20525;-70
2022/10/19 06:31:49;;;;;;;16.75;6.45;;;5.20;99.90;;;;;;5008189;28;20486;-69
2022/10/19 06:34:14;;;;;;;15.25;7.03;;;5.30;99.90;;;;;;5007993;28;20057;-69
2022/10/19 06:36:40;;;;;;;12.90;5.93;;;5.30;99.90;;;;;;5009428;28;20030;-70
2022/10/19 06:39:06;;;;;;;20.58;6.00;;;5.30;99.90;;;;;;5009601;28;20038;-68
2022/10/19 06:41:33;;;;;;;15.20;7.22;;;5.40;99.90;;;;;;5008685;28;20038;-70
2022/10/19 06:43:58;;;;;;;24.42;5.63;;;5.40;99.90;;;;;;5007336;28;20058;-70
2022/10/19 06:46:25;;;;;;;33.38;5.25;;;5.50;99.90;;;;;;5008528;28;20089;-69
2022/10/19 06:48:59;;;;;;;30.05;6.90;;;5.50;99.90;;;;;;5006306;28;20405;-70
2022/10/19 06:51:27;;;;;;;19.27;6.28;;;5.50;99.90;;;;;;4987819;28;20129;-69
2022/10/19 06:53:54;;;;;;;26.83;7.28;;;5.60;99.90;;;;;;5009418;28;20034;-67
2022/10/19 06:56:20;;;;;;;30.25;6.72;;;5.60;99.90;;;;;;5008757;28;20125;-68
2022/10/19 06:58:46;;;;;;;23.17;7.00;;;5.70;99.90;;;;;;5009178;28;20113;-69
2022/10/19 07:01:12;;;;;;;17.13;7.07;;;5.70;99.90;;;;;;5007160;28;20041;-70
2022/10/19 07:03:39;;;;;;;9.23;5.68;;;5.70;99.90;;;;;;4998587;28;20088;-69
2022/10/19 07:06:10;;;;;;;11.65;6.22;;;5.80;99.90;;;;;;5004385;28;20029;-69
2022/10/19 07:08:36;;;;;;;17.08;7.78;;;5.90;99.90;;;;;;5006636;28;20050;-69
2022/10/19 07:11:05;;;;;;;13.43;7.55;;;5.90;99.90;;;;;;5008000;28;20037;-70
2022/10/19 07:13:31;;;;;;;8.38;5.20;;;6.00;99.90;;;;;;5006812;28;20022;-70
2022/10/19 07:16:05;;;;;;;12.00;5.80;;;6.10;99.90;;;;;;5008506;28;20373;-69
2022/10/19 07:18:32;;;;;;;;;;;6.30;99.90;;;;;;5004743;28;20508;-69
2022/10/19 07:20:59;;;;;;;14.35;6.07;;;6.40;99.90;;;;;;5006835;28;19901;-70
2022/10/19 07:23:26;;;;;;;12.13;6.07;;;6.40;99.90;;;;;;5022368;28;20033;-69
2022/10/19 07:25:58;;;;;;;13.60;6.50;;;6.50;99.90;;;;;;5005465;28;20026;-70
2022/10/19 07:28:24;;;;;;;14.73;6.57;;;6.50;99.90;;;;;;4991861;28;22941;-69
2022/10/19 07:30:49;;;;;;;9.45;5.15;;;6.50;99.90;;;;;;5006207;28;20034;-69
2022/10/19 07:33:15;;;;;;;10.57;5.65;;;6.60;99.90;;;;;;5012880;28;20041;-69
2022/10/19 07:35:41;;;;;;;9.38;5.60;;;6.60;99.90;;;;;;5011780;28;20112;-69
2022/10/19 07:38:07;;;;;;;17.52;6.85;;;6.70;99.90;;;;;;5008559;28;20057;-70
2022/10/19 07:40:33;;;;;;;13.02;6.53;;;6.70;99.90;;;;;;5012848;28;20080;-70
2022/10/19 07:42:59;;;;;;;13.10;6.57;;;6.80;99.90;;;;;;5012532;28;20037;-70
2022/10/19 07:45:24;;;;;;;13.80;6.93;;;6.90;99.90;;;;;;5012474;28;20021;-69
2022/10/19 07:47:50;;;;;;;14.23;6.18;;;7.00;99.90;;;;;;5012224;28;20029;-70
2022/10/19 07:50:15;;;;;;;16.70;6.97;;;7.10;99.90;;;;;;5003539;28;20030;-69
2022/10/19 07:52:41;;;;;;;11.48;7.43;;;7.20;99.90;;;;;;5009964;28;20293;-69
2022/10/19 07:55:07;;;;;;;15.77;7.80;;;7.30;99.90;;;;;;5011525;28;20026;-70
2022/10/19 07:57:32;;;;;;;12.13;6.53;;;7.40;99.90;;;;;;5008779;28;20041;-70
2022/10/19 07:59:58;;;;;;;15.02;6.53;;;7.50;99.90;;;;;;5011721;28;20069;-70
2022/10/19 08:02:24;;;;;;;11.98;6.97;;;7.60;99.90;;;;;;5009261;28;20652;-70
2022/10/19 08:04:50;;;;;;;16.80;7.22;;;7.80;99.90;;;;;;5008976;28;20034;-70
2022/10/19 08:07:15;;;;;;;13.50;6.82;;;7.90;99.90;;;;;;5007509;28;20045;-70
2022/10/19 08:09:41;;;;;;;12.10;6.18;;;8.00;99.90;;;;;;5008986;28;20033;-70
2022/10/19 08:12:07;;;;;;;15.63;7.90;;;8.10;99.90;;;;;;5009833;28;20030;-69
2022/10/19 08:14:32;;;;;;;17.27;6.78;;;8.20;99.90;;;;;;5005100;28;20041;-70
2022/10/19 08:16:59;;;;;;;12.18;6.55;;;8.20;99.90;;;;;;5011619;28;20497;-69
2022/10/19 08:19:24;;;;;;;13.65;6.88;;;8.30;99.90;;;;;;5011959;28;20033;-70
2022/10/19 08:21:50;;;;;;;19.23;7.03;;;8.40;99.90;;;;;;5004525;28;20096;-68
2022/10/19 08:24:18;;;;;;;14.57;6.28;;;8.50;99.90;;;;;;5011068;28;20037;-68
2022/10/19 08:26:44;;;;;;;12.75;6.05;;;8.60;99.90;;;;;;5011419;28;20033;-69
2022/10/19 08:29:15;;;;;;;10.65;6.35;;;8.60;99.90;;;;;;4981645;28;20042;-69
2022/10/19 08:31:42;;;;;;;14.35;5.85;;;8.70;99.90;;;;;;5008499;28;20026;-68
2022/10/19 08:34:12;;;;;;;14.90;6.68;;;8.80;99.90;;;;;;5003441;28;20027;-68
2022/10/19 08:36:38;;;;;;;21.17;7.78;;;8.90;99.90;;;;;;5012737;28;20041;-71
2022/10/19 08:39:07;;;;;;;18.75;7.15;;;9.00;99.90;;;;;;5003575;28;20030;-71
2022/10/19 08:41:36;;;;;;;12.77;6.45;;;9.00;99.90;;;;;;5004769;28;20053;-71
2022/10/19 08:44:25;;;;;;;9.27;5.47;;;9.10;99.90;;;;;;5002683;28;20028;-69
2022/10/19 08:47:25;;;;;;;14.98;6.32;;;9.20;99.90;;;;;;5009630;28;20026;-69
2022/10/19 08:49:51;;;;;;;15.25;6.05;;;9.30;99.90;;;;;;5004305;28;20018;-69
2022/10/19 08:52:34;;;;;;;15.95;5.95;;;9.50;99.90;;;;;;5011908;28;20026;-69
2022/10/19 08:55:04;;;;;;;9.52;5.55;;;9.60;99.90;;;;;;5008692;28;20030;-68
2022/10/19 08:57:49;;;;;;;12.70;5.78;;;9.70;99.90;;;;;;5009166;28;20121;-69
2022/10/19 09:00:54;;;;;;;11.13;5.13;;;9.80;99.90;;;;;;5007722;28;20026;-68
2022/10/19 09:03:27;;;;;;;13.65;5.57;;;9.90;99.90;;;;;;5009934;28;20030;-71
2022/10/19 09:06:20;;;;;;;11.63;6.35;;;10.10;99.90;;;;;;5005890;28;20041;-71
2022/10/19 09:08:47;;;;;;;6.80;5.05;;;10.50;99.90;;;;;;5006332;28;20120;-71
2022/10/19 09:11:18;;;;;;;9.27;5.10;;;11.50;99.90;;;;;;5012595;28;20079;-71
2022/10/19 09:13:46;;;;;;;14.57;5.03;;;12.00;99.90;;;;;;5011844;28;20030;-71
2022/10/19 09:16:14;;;;;;;7.80;3.72;;;12.50;99.90;;;;;;5000881;28;20034;-71
2022/10/19 09:18:41;;;;;;;9.02;3.90;;;12.80;99.90;;;;;;5007441;28;20083;-70
2022/10/19 09:21:19;;;;;;;7.82;3.45;;;12.90;99.90;;;;;;5010098;28;20029;-71
2022/10/19 09:23:48;;;;;;;12.15;3.10;;;13.10;99.90;;;;;;5009868;28;20041;-71
2022/10/19 09:26:20;;;;;;;6.25;3.20;;;13.50;99.90;;;;;;5007666;28;20034;-71
2022/10/19 09:29:15;;;;;;;12.02;3.95;;;13.60;99.90;;;;;;4992878;28;20054;-71
2022/10/19 09:31:44;;;;;;;9.15;3.17;;;13.80;99.90;;;;;;5008510;28;20030;-68
2022/10/19 09:34:13;;;;;;;6.95;2.88;;;14.20;99.90;;;;;;5010111;28;20469;-72
2022/10/19 09:36:46;;;;;;;6.07;3.67;;;14.50;99.90;;;;;;5007196;28;20126;-69
2022/10/19 09:39:12;;;;;;;5.57;2.33;;;14.80;99.90;;;;;;5010696;28;20032;-69
2022/10/19 09:42:31;;;;;;;9.18;2.42;;;14.70;99.90;;;;;;5008550;28;20130;-68
2022/10/19 09:45:00;;;;;;;7.15;2.60;;;14.80;99.90;;;;;;4979137;28;20027;-71
2022/10/19 09:47:32;;;;;;;7.95;2.55;;;14.80;99.90;;;;;;5007835;28;20029;-71
2022/10/19 09:50:25;;;;;;;19.30;3.00;;;14.80;99.90;;;;;;5006559;28;20044;-70
2022/10/19 09:52:58;;;;;;;10.48;2.70;;;14.80;99.90;;;;;;5010011;28;20104;-71
2022/10/19 09:55:44;;;;;;;6.28;2.63;;;14.40;99.90;;;;;;5004385;28;20036;-70
2022/10/19 09:58:12;;;;;;;6.13;2.88;;;14.30;99.90;;;;;;5008462;28;20091;-70
2022/10/19 10:00:49;;;;;;;8.10;2.80;;;14.10;99.90;;;;;;5009522;28;20038;-71
2022/10/19 10:03:31;;;;;;;6.22;3.13;;;13.90;99.90;;;;;;5004166;28;20029;-69
2022/10/19 10:06:14;;;;;;;7.75;3.25;;;13.80;99.90;;;;;;5009697;28;20034;-71
2022/10/19 10:08:56;;;;;;;6.97;2.60;;;13.80;99.90;;;;;;5000317;28;20028;-68
2022/10/19 10:11:38;;;;;;;9.63;3.30;;;13.90;99.90;;;;;;5010383;28;20088;-69
2022/10/19 10:14:20;;;;;;;6.95;2.22;;;14.00;99.90;;;;;;5007740;28;20099;-70
2022/10/19 10:16:46;;;;;;;10.23;2.53;;;14.00;99.90;;;;;;5007588;28;20389;-71
2022/10/19 10:19:15;;;;;;;4.57;2.20;;;14.00;99.90;;;;;;5009263;28;20057;-71
2022/10/19 10:21:53;;;;;;;5.60;3.35;;;14.00;99.90;;;;;;4980524;28;20513;-70
2022/10/19 10:24:21;;;;;;;10.85;2.83;;;14.00;99.90;;;;;;5007866;28;20033;-71
2022/10/19 10:26:49;;;;;;;6.60;2.95;;;14.10;99.90;;;;;;5004931;28;20045;-70
2022/10/19 10:29:25;;;;;;;8.88;2.65;;;14.10;99.90;;;;;;4989071;28;20409;-69
2022/10/19 10:32:12;;;;;;;5.72;2.20;;;14.20;99.90;;;;;;5005562;28;20025;-71
2022/10/19 10:34:42;;;;;;;4.63;2.22;;;14.30;99.90;;;;;;5003514;28;20438;-69
2022/10/19 10:37:18;;;;;;;5.88;2.25;;;14.40;99.90;;;;;;5007389;28;20026;-70
2022/10/19 10:39:44;;;;;;;6.22;2.53;;;14.40;99.90;;;;;;5002135;28;20560;-70
2022/10/19 10:42:41;;;;;;;12.05;2.88;;;14.30;99.90;;;;;;5007952;28;20109;-71
2022/10/19 10:45:19;;;;;;;10.23;2.67;;;14.30;99.90;;;;;;5053749;23;20375;-69
2022/10/19 10:47:47;;;;;;;7.57;2.55;;;14.30;99.90;;;;;;4989661;28;20057;-69
2022/10/19 10:50:35;;;;;;;7.07;2.60;;;14.20;99.90;;;;;;5007563;28;20022;-68
2022/10/19 10:53:09;;;;;;;4.32;2.00;;;14.20;99.90;;;;;;5006199;28;20025;-68
2022/10/19 10:55:35;;;;;;;7.75;2.67;;;14.20;99.90;;;;;;5004766;28;20117;-69
2022/10/19 10:58:10;;;;;;;11.52;3.60;;;14.20;99.90;;;;;;5009744;28;20806;-70
2022/10/19 11:00:39;;;;;;;6.75;2.20;;;14.20;99.90;;;;;;5004110;28;20379;-70
2022/10/19 11:03:21;;;;;;;6.25;2.25;;;14.20;99.90;;;;;;4992310;28;20034;-70
2022/10/19 11:05:56;;;;;;;8.60;2.30;;;14.10;99.90;;;;;;5001412;28;20033;-70
2022/10/19 11:08:31;;;;;;;11.55;2.47;;;14.20;99.90;;;;;;5007207;28;20018;-68
2022/10/19 11:11:20;;;;;;;4.28;1.92;;;14.30;99.90;;;;;;4996584;28;20393;-70
2022/10/19 11:13:52;;;;;;;5.32;2.28;;;14.40;99.90;;;;;;5009380;28;20117;-69
2022/10/19 11:16:44;;;;;;;4.05;2.60;;;14.40;99.90;;;;;;5005328;28;20166;-69
2022/10/19 11:19:21;;;;;;;7.35;2.15;;;14.40;99.90;;;;;;5003479;28;20030;-70
2022/10/19 11:22:10;;;;;;;7.72;2.70;;;14.50;99.90;;;;;;5002319;28;20026;-68
2022/10/19 11:24:51;;;;;;;4.47;1.88;;;14.70;99.90;;;;;;5009617;28;20033;-69
2022/10/19 11:27:23;;;;;;;5.53;2.22;;;14.80;99.90;;;;;;5007313;28;20069;-69
2022/10/19 11:30:07;;;;;;;5.13;2.13;;;14.80;99.90;;;;;;4996225;28;20509;-70
2022/10/19 11:32:42;;;;;;;4.95;2.13;;;14.80;99.90;;;;;;5008392;28;20034;-69
2022/10/19 11:35:48;;;;;;;6.80;2.47;;;14.90;99.90;;;;;;5008000;28;20053;-70
2022/10/19 11:38:32;;;;;;;6.65;2.53;;;14.80;99.90;;;;;;4988217;28;20117;-71
2022/10/19 11:41:20;;;;;;;11.73;2.08;;;14.90;99.90;;;;;;5003469;28;20025;-70
2022/10/19 11:44:12;;;;;;;5.93;2.10;;;15.00;99.90;;;;;;5003541;28;20068;-70
2022/10/19 11:47:28;;;;;;;14.80;2.10;;;15.10;99.90;;;;;;5007671;28;20037;-69
2022/10/19 11:50:05;;;;;;;5.10;1.98;;;15.10;99.90;;;;;;4905389;29;20024;-69
2022/10/19 11:52:40;;;;;;;5.65;1.80;;;15.10;99.90;;;;;;5002577;28;20038;-69
2022/10/19 11:55:36;;;;;;;4.30;1.90;;;15.20;99.90;;;;;;4987568;28;20057;-68
2022/10/19 11:58:25;;;;;;;10.18;2.53;;;15.20;99.90;;;;;;5000850;28;20030;-70
2022/10/19 12:01:03;;;;;;;7.03;1.83;;;15.10;99.90;;;;;;4998156;28;20042;-69
2022/10/19 12:04:04;;;;;;;16.05;2.28;;;15.20;99.90;;;;;;5004881;28;20025;-70
2022/10/19 12:06:51;;;;;;;5.20;1.60;;;15.30;99.90;;;;;;5000722;28;20044;-70
2022/10/19 12:09:26;;;;;;;6.47;2.60;;;15.30;99.90;;;;;;5001990;28;20026;-70
2022/10/19 12:12:25;;;;;;;5.40;1.73;;;15.40;99.90;;;;;;4999583;28;20105;-68
2022/10/19 12:14:58;;;;;;;6.65;1.98;;;15.40;99.90;;;;;;5002982;28;20508;-70
2022/10/19 12:17:30;;;;;;;6.22;1.90;;;15.50;99.90;;;;;;5007624;28;20040;-71
2022/10/19 12:20:03;;;;;;;8.82;2.00;;;15.60;99.90;;;;;;4992064;28;20034;-71
2022/10/19 12:22:30;;;;;;;12.13;2.47;;;15.60;99.90;;;;;;5009734;28;20040;-70
2022/10/19 12:24:59;;;;;;;6.63;2.22;;;15.50;99.90;;;;;;5006350;28;20033;-69
2022/10/19 12:27:39;;;;;;;6.85;2.67;;;15.50;99.90;;;;;;5004503;28;20033;-71
2022/10/19 12:30:25;;;;;;;9.60;2.28;;;15.40;99.90;;;;;;4967816;28;20077;-70
2022/10/19 12:32:54;;;;;;;4.65;2.10;;;15.30;99.90;;;;;;5008669;28;20125;-70
2022/10/19 12:35:38;;;;;;;8.32;2.25;;;15.30;99.90;;;;;;4994842;28;20041;-72
2022/10/19 12:38:18;;;;;;;5.60;2.38;;;15.30;99.90;;;;;;5007340;28;20564;-72
2022/10/19 12:40:48;;;;;;;4.43;2.45;;;15.30;99.90;;;;;;5003563;28;20072;-69
2022/10/19 12:43:30;;;;;;;5.47;2.28;;;15.40;99.90;;;;;;5009948;28;20576;-70
2022/10/19 12:46:35;;;;;;;6.15;2.30;;;15.30;99.90;;;;;;5008562;28;20382;-71
2022/10/19 12:49:29;;;;;;;5.50;2.05;;;15.30;99.90;;;;;;4937688;28;20039;-69
2022/10/19 12:51:57;;;;;;;6.15;2.05;;;15.30;99.90;;;;;;5009207;28;20056;-70
2022/10/19 12:54:31;;;;;;;8.60;3.35;;;15.30;99.90;;;;;;5011038;28;20033;-70
2022/10/19 12:56:59;;;;;;;5.47;2.65;;;15.20;99.90;;;;;;4992150;28;20030;-70
2022/10/19 12:59:28;;;;;;;6.50;2.67;;;15.30;99.90;;;;;;5011304;28;20057;-70
2022/10/19 13:01:55;;;;;;;5.97;2.25;;;15.30;99.90;;;;;;5010905;28;20065;-71
2022/10/19 13:04:31;;;;;;;5.55;2.00;;;15.30;99.90;;;;;;5008996;28;20037;-70
2022/10/19 13:06:56;;;;;;;5.68;1.60;;;15.30;99.90;;;;;;5010456;28;20033;-69
2022/10/19 13:09:33;;;;;;;8.48;2.15;;;15.30;99.90;;;;;;5012036;28;20669;-71
2022/10/19 13:15:00;;;;;;;8.60;2.55;;;15.30;99.90;;;;;;5004021;28;20065;-70